Time;durP1;ratioP1;P1;durP2;ratioP2;P2;SDS_P1;SDS_P2;PMS_P1;PMS_P2;Temp;Humidity;BMP_temperature;BMP_pressure;BME280_temperature;BME280_humidity;BME280_pressure;Samples;Min_cycle;Max_cycle;Signal;HPM_P1;HPM_P2
2022/03/17 00:01:48;;;;;;;;;;;;;;;;;;5031772;28;902;-68
2022/03/17 00:04:15;;;;;;;;;;;;;;;;;;5031713;28;1087;-68
2022/03/17 00:06:42;;;;;;;;;;;;;;;;;;5031267;28;1318;-67
2022/03/17 00:09:08;;;;;;;;;;;;;;;;;;5031033;28;881;-67
2022/03/17 00:11:34;;;;;;;;;;;;;;;;;;5030947;28;1153;-67
2022/03/17 00:14:01;;;;;;;;;;;;;;;;;;5030847;28;941;-67
2022/03/17 00:16:28;;;;;;;;;;;;;;;;;;5030517;28;1317;-67
2022/03/17 00:18:55;;;;;;;;;;;;;;;;;;5030991;28;1914;-68
2022/03/17 00:21:23;;;;;;;;;;;;;;;;;;5030908;28;1099;-67
2022/03/17 00:23:50;;;;;;;;;;;;;;;;;;5030843;28;1095;-67
2022/03/17 00:26:16;;;;;;;;;;;;;;;;;;5030255;28;1313;-67
2022/03/17 00:28:42;;;;;;;;;;;;;;;;;;5030743;28;983;-67
2022/03/17 00:31:09;;;;;;;;;;;;;;;;;;5030653;28;1094;-68
2022/03/17 00:33:35;;;;;;;;;;;;;;;;;;5030441;28;1079;-67
2022/03/17 00:36:01;;;;;;;;;;;;;;;;;;5030587;28;1306;-67
2022/03/17 00:38:30;;;;;;;;;;;;;;;;;;5030163;28;1915;-67
2022/03/17 00:40:57;;;;;;;;;;;;;;;;;;5030623;28;913;-67
2022/03/17 00:43:24;;;;;;;;;;;;;;;;;;5030485;28;1098;-67
2022/03/17 00:45:50;;;;;;;;;;;;;;;;;;5030358;28;1314;-67
2022/03/17 00:48:17;;;;;;;;;;;;;;;;;;5030248;28;1146;-67
2022/03/17 00:50:43;;;;;;;;;;;;;;;;;;5030433;28;861;-67
2022/03/17 00:53:09;;;;;;;;;;;;;;;;;;5030527;28;1012;-67
2022/03/17 00:55:37;;;;;;;;;;;;;;;;;;5015636;28;1404;-67
2022/03/17 00:58:03;;;;;;;;;;;;;;;;;;5033761;28;1983;-67
2022/03/17 01:00:30;;;;;;;;;;;;;;;;;;5034009;28;1149;-67
2022/03/17 01:02:57;;;;;;;;;;;;;;;;;;5033922;28;1063;-67
2022/03/17 01:05:23;;;;;;;;;;;;;;;;;;5033939;28;1086;-67
2022/03/17 01:07:50;;;;;;;;;;;;;;;;;;5038474;22;3733;-67
2022/03/17 01:10:17;;;;;;;;;;;;;;;;;;5013771;28;1088;-67
2022/03/17 01:12:46;;;;;;;;;;;;;;;;;;5013910;28;1154;-68
2022/03/17 01:15:12;;;;;;;;;;;;;;;;;;5012621;28;1129;-67
2022/03/17 01:17:38;;;;;;;;;;;;;;;;;;5025720;28;1914;-67
2022/03/17 01:20:05;;;;;;;;;;;;;;;;;;5033643;28;1138;-68
2022/03/17 01:22:31;;;;;;;;;;;;;;;;;;5033514;28;798;-67
2022/03/17 01:24:57;;;;;;;;;;;;;;;;;;5033368;28;1063;-67
2022/03/17 01:27:23;;;;;;;;;;;;;;;;;;5033019;28;1310;-67
2022/03/17 01:29:51;;;;;;;;;;;;;;;;;;5033520;28;913;-67
2022/03/17 01:32:18;;;;;;;;;;;;;;;;;;5033222;28;1110;-67
2022/03/17 01:34:44;;;;;;;;;;;;;;;;;;5033560;28;1028;-67
2022/03/17 01:37:10;;;;;;;;;;;;;;;;;;5032717;28;1985;-67
2022/03/17 01:39:37;;;;;;;;;;;;;;;;;;5033364;28;1106;-67
2022/03/17 01:42:05;;;;;;;;;;;;;;;;;;5033157;28;995;-67
2022/03/17 01:44:32;;;;;;;;;;;;;;;;;;5033059;28;1094;-68
2022/03/17 01:49:43;;;;;;;;;;;;;;;;;;5013178;28;1068;-67
2022/03/17 01:52:10;;;;;;;;;;;;;;;;;;5013280;28;949;-67
2022/03/17 01:54:36;;;;;;;;;;;;;;;;;;5013063;28;649;-67
2022/03/17 01:57:03;;;;;;;;;;;;;;;;;;5012740;28;1346;-67
2022/03/17 01:59:30;;;;;;;;;;;;;;;;;;5013794;28;953;-68
2022/03/17 02:01:57;;;;;;;;;;;;;;;;;;4995455;28;1793;-67
2022/03/17 02:04:25;;;;;;;;;;;;;;;;;;5013149;28;1138;-67
2022/03/17 02:06:51;;;;;;;;;;;;;;;;;;4993923;28;1364;-68
2022/03/17 02:09:18;;;;;;;;;;;;;;;;;;5012911;28;805;-67
2022/03/17 02:14:28;;;;;;;;;;;;;;;;;;5012778;28;1070;-68
2022/03/17 02:16:54;;;;;;;;;;;;;;;;;;5012581;28;1431;-67
2022/03/17 02:19:21;;;;;;;;;;;;;;;;;;5012591;28;2052;-67
2022/03/17 02:21:49;;;;;;;;;;;;;;;;;;5012856;28;870;-67
2022/03/17 02:27:00;;;;;;;;;;;;;;;;;;5012544;28;1455;-68
2022/03/17 02:29:26;;;;;;;;;;;;;;;;;;5012514;28;960;-67
2022/03/17 02:31:52;;;;;;;;;;;;;;;;;;5012739;28;1083;-67
2022/03/17 02:34:19;;;;;;;;;;;;;;;;;;5012634;28;1083;-67
2022/03/17 02:36:46;;;;;;;;;;;;;;;;;;5012269;28;1403;-67
2022/03/17 02:39:13;;;;;;;;;;;;;;;;;;4995438;28;1989;-67
2022/03/17 02:41:41;;;;;;;;;;;;;;;;;;5012524;28;930;-67
2022/03/17 02:44:07;;;;;;;;;;;;;;;;;;5012289;28;1008;-67
2022/03/17 02:46:33;;;;;;;;;;;;;;;;;;5011861;28;1810;-68
2022/03/17 02:48:59;;;;;;;;;;;;;;;;;;4994555;28;1317;-67
2022/03/17 02:51:25;;;;;;;;;;;;;;;;;;5012015;28;1152;-68
2022/03/17 02:53:51;;;;;;;;;;;;;;;;;;5012088;28;856;-68
2022/03/17 02:56:18;;;;;;;;;;;;;;;;;;5011616;28;1353;-67
2022/03/17 02:58:45;;;;;;;;;;;;;;;;;;5011948;28;1910;-68
2022/03/17 03:01:11;;;;;;;;;;;;;;;;;;5012114;28;976;-67
2022/03/17 03:03:37;;;;;;;;;;;;;;;;;;5012020;28;1123;-68
2022/03/17 03:06:04;;;;;;;;;;;;;;;;;;5011966;28;905;-68
2022/03/17 03:08:30;;;;;;;;;;;;;;;;;;5011630;28;1263;-68
2022/03/17 03:10:57;;;;;;;;;;;;;;;;;;5011890;28;1079;-68
2022/03/17 03:13:23;;;;;;;;;;;;;;;;;;5011693;28;795;-68
2022/03/17 03:15:50;;;;;;;;;;;;;;;;;;5011858;28;1144;-68
2022/03/17 03:18:17;;;;;;;;;;;;;;;;;;5011241;28;1989;-68
2022/03/17 03:20:43;;;;;;;;;;;;;;;;;;5011820;28;960;-67
2022/03/17 03:23:09;;;;;;;;;;;;;;;;;;5011570;28;1015;-68
2022/03/17 03:25:36;;;;;;;;;;;;;;;;;;5011504;28;1076;-67
2022/03/17 03:28:05;;;;;;;;;;;;;;;;;;4993742;28;1333;-67
2022/03/17 03:30:31;;;;;;;;;;;;;;;;;;5013534;28;1784;-68
2022/03/17 03:32:58;;;;;;;;;;;;;;;;;;5029646;28;1342;-68
2022/03/17 03:38:09;;;;;;;;;;;;;;;;;;5030818;28;1922;-67
2022/03/17 03:40:35;;;;;;;;;;;;;;;;;;5030628;28;1496;-67
2022/03/17 03:43:01;;;;;;;;;;;;;;;;;;5030909;28;898;-67
2022/03/17 03:45:28;;;;;;;;;;;;;;;;;;5031074;28;1095;-67
2022/03/17 03:47:54;;;;;;;;;;;;;;;;;;5030714;28;1395;-68
2022/03/17 03:50:22;;;;;;;;;;;;;;;;;;5030843;28;1171;-68
2022/03/17 03:52:48;;;;;;;;;;;;;;;;;;5030825;28;1066;-67
2022/03/17 03:55:14;;;;;;;;;;;;;;;;;;5013167;28;1113;-66
2022/03/17 03:57:40;;;;;;;;;;;;;;;;;;5030647;28;1422;-68
2022/03/17 04:00:16;;;;;;;;;;;;;;;;;;5030701;28;889;-67
2022/03/17 04:02:43;;;;;;;;;;;;;;;;;;5030790;28;1091;-67
2022/03/17 04:05:10;;;;;;;;;;;;;;;;;;5030883;28;1095;-68
2022/03/17 04:07:38;;;;;;;;;;;;;;;;;;5030419;28;1396;-66
2022/03/17 04:10:05;;;;;;;;;;;;;;;;;;5030671;28;1087;-68
2022/03/17 04:12:31;;;;;;;;;;;;;;;;;;5030790;28;945;-67
2022/03/17 04:14:58;;;;;;;;;;;;;;;;;;5030612;28;878;-68
2022/03/17 04:17:24;;;;;;;;;;;;;;;;;;5030483;28;1320;-68
2022/03/17 04:19:50;;;;;;;;;;;;;;;;;;5030496;28;1966;-67
2022/03/17 04:22:16;;;;;;;;;;;;;;;;;;5030716;28;1082;-68
2022/03/17 04:24:44;;;;;;;;;;;;;;;;;;5030520;28;815;-68
2022/03/17 04:27:10;;;;;;;;;;;;;;;;;;5030054;28;1405;-68
2022/03/17 04:29:36;;;;;;;;;;;;;;;;;;5032482;28;1013;-67
2022/03/17 04:32:03;;;;;;;;;;;;;;;;;;5034384;28;759;-68
2022/03/17 04:34:29;;;;;;;;;;;;;;;;;;5034433;28;1071;-67
2022/03/17 04:36:55;;;;;;;;;;;;;;;;;;5034176;28;1324;-68
2022/03/17 04:39:21;;;;;;;;;;;;;;;;;;5035045;28;1918;-67
2022/03/17 04:41:49;;;;;;;;;;;;;;;;;;5034352;28;697;-68
2022/03/17 04:44:15;;;;;;;;;;;;;;;;;;5034213;28;1388;-68
2022/03/17 04:46:41;;;;;;;;;;;;;;;;;;5034037;28;1423;-67
2022/03/17 04:49:08;;;;;;;;;;;;;;;;;;5034087;28;913;-67
2022/03/17 04:51:35;;;;;;;;;;;;;;;;;;5034143;28;707;-68
2022/03/17 04:54:02;;;;;;;;;;;;;;;;;;5033963;28;1123;-68
2022/03/17 04:56:29;;;;;;;;;;;;;;;;;;5033829;28;1332;-67
2022/03/17 04:58:56;;;;;;;;;;;;;;;;;;5033809;28;1918;-68
2022/03/17 05:01:23;;;;;;;;;;;;;;;;;;5033974;28;1134;-68
2022/03/17 05:03:49;;;;;;;;;;;;;;;;;;5034137;28;945;-68
2022/03/17 05:06:16;;;;;;;;;;;;;;;;;;5033657;28;1341;-68
2022/03/17 05:08:42;;;;;;;;;;;;;;;;;;5016059;28;1144;-68
2022/03/17 05:11:09;;;;;;;;;;;;;;;;;;5034092;28;996;-68
2022/03/17 05:13:35;;;;;;;;;;;;;;;;;;5034252;28;1087;-68
2022/03/17 05:16:03;;;;;;;;;;;;;;;;;;5034058;28;1071;-68
2022/03/17 05:18:29;;;;;;;;;;;;;;;;;;5033474;28;1993;-68
2022/03/17 05:20:55;;;;;;;;;;;;;;;;;;5033673;28;1087;-68
2022/03/17 05:23:22;;;;;;;;;;;;;;;;;;5033690;28;944;-67
2022/03/17 05:25:48;;;;;;;;;;;;;;;;;;5033524;28;1286;-68
2022/03/17 05:28:15;;;;;;;;;;;;;;;;;;5034728;28;1490;-68
2022/03/17 05:30:41;;;;;;;;;;;;;;;;;;5033178;28;1666;-69
2022/03/17 05:33:11;;;;;;;;;;;;;;;;;;5032739;28;1531;-69
2022/03/17 05:35:37;;;;;;;;;;;;;;;;;;5032007;28;1552;-69
2022/03/17 05:38:03;;;;;;;;;;;;;;;;;;5032725;28;1595;-69
2022/03/17 05:40:30;;;;;;;;;;;;;;;;;;5033044;28;1914;-69
2022/03/17 05:42:57;;;;;;;;;;;;;;;;;;5032620;28;1616;-69
2022/03/17 05:45:25;;;;;;;;;;;;;;;;;;5032575;28;1128;-69
2022/03/17 05:47:51;;;;;;;;;;;;;;;;;;5031967;28;1400;-69
2022/03/17 05:50:20;;;;;;;;;;;;;;;;;;5033328;28;1043;-69
2022/03/17 05:52:47;;;;;;;;;;;;;;;;;;5032982;28;1220;-69
2022/03/17 05:55:14;;;;;;;;;;;;;;;;;;5033024;28;1079;-69
2022/03/17 05:57:40;;;;;;;;;;;;;;;;;;5032886;28;1283;-69
2022/03/17 06:00:08;;;;;;;;;;;;;;;;;;5032840;28;1978;-69
2022/03/17 06:02:34;;;;;;;;;;;;;;;;;;5033150;28;1068;-70
2022/03/17 06:05:00;;;;;;;;;;;;;;;;;;5032824;28;976;-70
2022/03/17 06:07:29;;;;;;;;;;;;;;;;;;5032499;28;1321;-69
2022/03/17 06:09:56;;;;;;;;;;;;;;;;;;5032257;28;1362;-69
2022/03/17 06:12:23;;;;;;;;;;;;;;;;;;5032669;28;1067;-68
2022/03/17 06:14:49;;;;;;;;;;;;;;;;;;5032759;28;1055;-69
2022/03/17 06:17:15;;;;;;;;;;;;;;;;;;5032376;28;1437;-68
2022/03/17 06:19:42;;;;;;;;;;;;;;;;;;5031373;28;1918;-69
2022/03/17 06:22:08;;;;;;;;;;;;;;;;;;5031831;28;1591;-69
2022/03/17 06:24:36;;;;;;;;;;;;;;;;;;5032164;28;1639;-69
2022/03/17 06:27:02;;;;;;;;;;;;;;;;;;5023475;28;1612;-69
2022/03/17 06:29:28;;;;;;;;;;;;;;;;;;5030237;28;1111;-69
2022/03/17 06:31:55;;;;;;;;;;;;;;;;;;5029646;28;1765;-69
2022/03/17 06:34:21;;;;;;;;;;;;;;;;;;5030299;28;1079;-69
2022/03/17 06:36:47;;;;;;;;;;;;;;;;;;5029588;28;1554;-69
2022/03/17 06:39:14;;;;;;;;;;;;;;;;;;5029197;28;1971;-69
2022/03/17 06:41:41;;;;;;;;;;;;;;;;;;5029278;28;1361;-69
2022/03/17 06:44:07;;;;;;;;;;;;;;;;;;5030685;28;797;-69
2022/03/17 06:46:33;;;;;;;;;;;;;;;;;;5031364;28;1479;-69
2022/03/17 06:49:00;;;;;;;;;;;;;;;;;;5031397;28;1614;-69
2022/03/17 06:51:26;;;;;;;;;;;;;;;;;;5007497;28;1702;-68
2022/03/17 06:53:52;;;;;;;;;;;;;;;;;;5019980;28;1049;-66
2022/03/17 06:56:19;;;;;;;;;;;;;;;;;;5029867;28;1767;-68
2022/03/17 06:58:46;;;;;;;;;;;;;;;;;;5030981;28;1969;-67
2022/03/17 07:01:12;;;;;;;;;;;;;;;;;;5012840;28;1563;-68
2022/03/17 07:03:38;;;;;;;;;;;;;;;;;;5029464;28;1387;-68
2022/03/17 07:06:05;;;;;;;;;;;;;;;;;;5032530;28;1626;-67
2022/03/17 07:08:31;;;;;;;;;;;;;;;;;;5072997;22;4123;-67
2022/03/17 07:10:57;;;;;;;;;;;;;;;;;;5030313;28;1647;-68
2022/03/17 07:13:23;;;;;;;;;;;;;;;;;;5031525;28;956;-68
2022/03/17 07:15:51;;;;;;;;;;;;;;;;;;5014915;28;1594;-68
2022/03/17 07:18:17;;;;;;;;;;;;;;;;;;5031259;28;806;-68
2022/03/17 07:20:43;;;;;;;;;;;;;;;;;;5020489;28;1993;-66
2022/03/17 07:23:09;;;;;;;;;;;;;;;;;;5025584;28;1652;-68
2022/03/17 07:25:36;;;;;;;;;;;;;;;;;;5022885;28;1364;-67
2022/03/17 07:28:03;;;;;;;;;;;;;;;;;;5011220;28;704;-66
2022/03/17 07:30:31;;;;;;;;;;;;;;;;;;5027218;28;1435;-67
2022/03/17 07:32:59;;;;;;;;;;;;;;;;;;5026629;28;1644;-67
2022/03/17 07:35:27;;;;;;;;;;;;;;;;;;5031204;28;1028;-68
2022/03/17 07:37:53;;;;;;;;;;;;;;;;;;5026294;28;1750;-67
2022/03/17 07:40:19;;;;;;;;;;;;;;;;;;5013086;28;1906;-68
2022/03/17 07:42:46;;;;;;;;;;;;;;;;;;5013795;28;1730;-66
2022/03/17 07:45:38;;;;;;;;;;;;;;;;;;5025999;28;1415;-68
2022/03/17 07:48:41;;;;;;;;;;;;;;;;;;5023456;28;1499;-68
2022/03/17 07:51:16;;;;;;;;;;;;;;;;;;5020583;28;1409;-67
2022/03/17 07:53:42;;;;;;;;;;;;;;;;;;5024667;28;1586;-68
2022/03/17 07:56:09;;;;;;;;;;;;;;;;;;5027974;28;1530;-67
2022/03/17 07:58:36;;;;;;;;;;;;;;;;;;5030746;28;1311;-68
2022/03/17 08:01:02;;;;;;;;;;;;;;;;;;5018127;28;1918;-69
2022/03/17 08:03:28;;;;;;;;;;;;;;;;;;5030026;28;1095;-67
2022/03/17 08:05:57;;;;;;;;;;;;;;;;;;5029917;28;1297;-68
2022/03/17 08:08:23;;;;;;;;;;;;;;;;;;5026092;28;1510;-68
2022/03/17 08:10:50;;;;;;;;;;;;;;;;;;5027197;28;1465;-67
2022/03/17 08:13:16;;;;;;;;;;;;;;;;;;5030910;28;1126;-68
2022/03/17 08:15:42;;;;;;;;;;;;;;;;;;5019776;28;1558;-68
2022/03/17 08:18:09;;;;;;;;;;;;;;;;;;5028802;28;1144;-67
2022/03/17 08:20:36;;;;;;;;;;;;;;;;;;5019948;28;1914;-67
2022/03/17 08:23:04;;;;;;;;;;;;;;;;;;5017724;28;1348;-67
2022/03/17 08:25:30;;;;;;;;;;;;;;;;;;5015796;28;1083;-69
2022/03/17 08:27:56;;;;;;;;;;;;;;;;;;5030141;28;1640;-67
2022/03/17 08:30:23;;;;;;;;;;;;;;;;;;5029442;28;1577;-68
2022/03/17 08:32:49;;;;;;;;;;;;;;;;;;5030370;28;1414;-68
2022/03/17 08:35:17;;;;;;;;;;;;;;;;;;5011931;28;1562;-67
2022/03/17 08:37:44;;;;;;;;;;;;;;;;;;5017080;28;1131;-68
2022/03/17 08:40:12;;;;;;;;;;;;;;;;;;5029886;28;1910;-68
2022/03/17 08:42:38;;;;;;;;;;;;;;;;;;5027357;28;1480;-67
2022/03/17 08:49:18;;;;;;;;;;;;;;;;;;5030488;28;1027;-67
2022/03/17 08:50:35;;;;;;;;;;;;;;;;;;5044791;28;1590;-68
2022/03/17 08:53:01;;;;;;;;;;;;;;;;;;5012581;28;1662;-67
2022/03/17 08:55:29;;;;;;;;;;;;;;;;;;5019008;28;1586;-68
2022/03/17 08:57:56;;;;;;;;;;;;;;;;;;5030097;28;956;-67
2022/03/17 09:00:22;;;;;;;;;;;;;;;;;;5028716;28;1910;-68
2022/03/17 09:02:48;;;;;;;;;;;;;;;;;;5023771;28;1625;-69
2022/03/17 09:05:15;;;;;;;;;;;;;;;;;;5010583;28;1079;-68
2022/03/17 09:07:41;;;;;;;;;;;;;;;;;;5011010;28;1582;-68
2022/03/17 09:10:09;;;;;;;;;;;;;;;;;;5010437;28;1281;-68
2022/03/17 09:12:38;;;;;;;;;;;;;;;;;;5011502;28;1590;-68
2022/03/17 09:15:05;;;;;;;;;;;;;;;;;;5011304;28;1087;-67
2022/03/17 09:17:32;;;;;;;;;;;;;;;;;;5025606;28;1268;-68
2022/03/17 09:19:58;;;;;;;;;;;;;;;;;;5022513;28;1927;-68
2022/03/17 09:22:24;;;;;;;;;;;;;;;;;;5021855;28;1569;-67
2022/03/17 09:24:50;;;;;;;;;;;;;;;;;;5033644;28;1146;-67
2022/03/17 09:27:16;;;;;;;;;;;;;;;;;;5032566;28;1628;-67
2022/03/17 09:29:44;;;;;;;;;;;;;;;;;;5033172;28;1404;-66
2022/03/17 09:32:10;;;;;;;;;;;;;;;;;;5024195;28;1536;-68
2022/03/17 09:34:36;;;;;;;;;;;;;;;;;;5026236;28;1396;-67
2022/03/17 09:37:03;;;;;;;;;;;;;;;;;;5032837;28;904;-68
2022/03/17 09:39:44;;;;;;;;;;;;;;;;;;5032993;28;1973;-69
2022/03/17 09:42:10;;;;;;;;;;;;;;;;;;5028384;28;2065;-67
2022/03/17 09:44:36;;;;;;;;;;;;;;;;;;5032316;28;1086;-67
2022/03/17 09:47:08;;;;;;;;;;;;;;;;;;5032967;28;1395;-68
2022/03/17 09:49:37;;;;;;;;;;;;;;;;;;5032560;28;1426;-68
2022/03/17 09:52:05;;;;;;;;;;;;;;;;;;5029710;28;1660;-68
2022/03/17 09:54:33;;;;;;;;;;;;;;;;;;5032836;28;972;-68
2022/03/17 09:56:59;;;;;;;;;;;;;;;;;;5031463;28;1705;-68
2022/03/17 09:59:26;;;;;;;;;;;;;;;;;;5032666;28;1310;-68
2022/03/17 10:01:52;;;;;;;;;;;;;;;;;;5025387;28;1987;-68
2022/03/17 10:04:19;;;;;;;;;;;;;;;;;;5032127;28;1490;-67
2022/03/17 10:06:46;;;;;;;;;;;;;;;;;;5031887;28;1569;-68
2022/03/17 10:09:12;;;;;;;;;;;;;;;;;;5028595;28;1568;-68
2022/03/17 10:11:39;;;;;;;;;;;;;;;;;;5032344;28;1233;-69
2022/03/17 10:14:06;;;;;;;;;;;;;;;;;;5032581;28;1134;-68
2022/03/17 10:16:33;;;;;;;;;;;;;;;;;;5019480;28;1447;-68
2022/03/17 10:19:00;;;;;;;;;;;;;;;;;;5032781;28;1335;-68
2022/03/17 10:21:28;;;;;;;;;;;;;;;;;;5032157;28;1918;-68
2022/03/17 10:23:55;;;;;;;;;;;;;;;;;;5032366;28;942;-69
2022/03/17 10:26:32;;;;;;;;;;;;;;;;;;5031375;28;1024;-68
2022/03/17 10:29:03;;;;;;;;;;;;;;;;;;5032254;28;1416;-68
2022/03/17 10:31:30;;;;;;;;;;;;;;;;;;5032127;28;1098;-68
2022/03/17 10:33:57;;;;;;;;;;;;;;;;;;5031868;28;1306;-68
2022/03/17 10:36:23;;;;;;;;;;;;;;;;;;5020040;28;1517;-68
2022/03/17 10:38:50;;;;;;;;;;;;;;;;;;5012198;28;1678;-68
2022/03/17 10:41:17;;;;;;;;;;;;;;;;;;5020756;28;1985;-68
2022/03/17 10:43:43;;;;;;;;;;;;;;;;;;5030459;28;1684;-67
2022/03/17 10:46:11;;;;;;;;;;;;;;;;;;5019069;28;1554;-69
2022/03/17 10:48:52;;;;;;;;;;;;;;;;;;5025840;28;1593;-68
2022/03/17 10:51:24;;;;;;;;;;;;;;;;;;5033253;28;1629;-69
2022/03/17 10:53:58;;;;;;;;;;;;;;;;;;5026775;28;1884;-68
2022/03/17 10:56:24;;;;;;;;;;;;;;;;;;5031243;28;1343;-69
2022/03/17 10:58:50;;;;;;;;;;;;;;;;;;5031139;28;1605;-69
2022/03/17 11:01:16;;;;;;;;;;;;;;;;;;5031791;28;1968;-68
2022/03/17 11:03:43;;;;;;;;;;;;;;;;;;5025783;28;1640;-68
2022/03/17 11:06:09;;;;;;;;;;;;;;;;;;5011715;28;901;-68
2022/03/17 11:08:37;;;;;;;;;;;;;;;;;;5012598;28;1574;-68
2022/03/17 11:11:05;;;;;;;;;;;;;;;;;;5014270;28;1590;-68
2022/03/17 11:13:31;;;;;;;;;;;;;;;;;;5021434;28;1399;-68
2022/03/17 11:15:58;;;;;;;;;;;;;;;;;;5011896;28;1083;-68
2022/03/17 11:18:24;;;;;;;;;;;;;;;;;;5028504;28;1335;-68
2022/03/17 11:20:50;;;;;;;;;;;;;;;;;;5030564;28;1969;-68
2022/03/17 11:23:19;;;;;;;;;;;;;;;;;;5030554;28;1649;-68
2022/03/17 11:25:46;;;;;;;;;;;;;;;;;;5031117;28;1094;-68
2022/03/17 11:28:15;;;;;;;;;;;;;;;;;;5030692;28;1851;-70
2022/03/17 11:30:42;;;;;;;;;;;;;;;;;;5030879;28;1337;-69
2022/03/17 11:33:20;;;;;;;;;;;;;;;;;;5025613;28;1609;-69
2022/03/17 11:35:49;;;;;;;;;;;;;;;;;;5029185;28;1648;-68
2022/03/17 11:38:16;;;;;;;;;;;;;;;;;;5028875;28;1653;-69
2022/03/17 11:41:01;;;;;;;;;;;;;;;;;;5029001;28;1907;-69
2022/03/17 11:43:28;;;;;;;;;;;;;;;;;;5022946;28;1475;-69
2022/03/17 11:46:07;;;;;;;;;;;;;;;;;;5011027;28;1550;-70
2022/03/17 11:48:36;;;;;;;;;;;;;;;;;;5024696;28;1896;-70
2022/03/17 11:51:04;;;;;;;;;;;;;;;;;;5018806;28;1697;-69
2022/03/17 11:53:39;;;;;;;;;;;;;;;;;;5025486;28;1579;-69
2022/03/17 11:56:06;;;;;;;;;;;;;;;;;;5025413;28;1546;-68
2022/03/17 11:58:42;;;;;;;;;;;;;;;;;;5030481;28;1314;-69
2022/03/17 12:01:11;;;;;;;;;;;;;;;;;;5031061;28;1979;-69
2022/03/17 12:03:38;;;;;;;;;;;;;;;;;;5030636;28;802;-69
2022/03/17 12:06:04;;;;;;;;;;;;;;;;;;5030468;28;1031;-70
2022/03/17 12:08:33;;;;;;;;;;;;;;;;;;5030271;28;1336;-69
2022/03/17 12:11:03;;;;;;;;;;;;;;;;;;5030285;28;1071;-67
2022/03/17 12:13:29;;;;;;;;;;;;;;;;;;5030609;28;1071;-67
2022/03/17 12:15:57;;;;;;;;;;;;;;;;;;5030622;28;877;-66
2022/03/17 12:18:23;;;;;;;;;;;;;;;;;;5030194;28;1020;-67
2022/03/17 12:20:52;;;;;;;;;;;;;;;;;;5030465;28;1958;-68
2022/03/17 12:23:37;;;;;;;;;;;;;;;;;;5030368;28;1146;-67
2022/03/17 12:26:04;;;;;;;;;;;;;;;;;;5027355;28;1348;-70
2022/03/17 12:28:30;;;;;;;;;;;;;;;;;;5017282;28;1622;-67
2022/03/17 12:30:58;;;;;;;;;;;;;;;;;;5019870;28;1727;-66
2022/03/17 12:33:24;;;;;;;;;;;;;;;;;;5030179;28;1087;-67
2022/03/17 12:36:02;;;;;;;;;;;;;;;;;;5029072;28;1462;-68
2022/03/17 12:38:29;;;;;;;;;;;;;;;;;;5028827;28;1427;-67
2022/03/17 12:40:56;;;;;;;;;;;;;;;;;;5029720;28;1910;-67
2022/03/17 12:43:22;;;;;;;;;;;;;;;;;;5030214;28;1087;-67
2022/03/17 12:45:49;;;;;;;;;;;;;;;;;;5028297;28;1613;-69
2022/03/17 12:48:17;;;;;;;;;;;;;;;;;;5028589;28;1550;-68
2022/03/17 12:50:44;;;;;;;;;;;;;;;;;;5031328;28;1437;-68
2022/03/17 12:53:10;;;;;;;;;;;;;;;;;;5025903;28;1687;-67
2022/03/17 12:55:36;;;;;;;;;;;;;;;;;;5018443;28;1570;-67
2022/03/17 12:58:04;;;;;;;;;;;;;;;;;;5033079;28;1299;-67
2022/03/17 13:00:30;;;;;;;;;;;;;;;;;;5031851;28;1574;-68
2022/03/17 13:02:57;;;;;;;;;;;;;;;;;;5033967;28;1918;-68
2022/03/17 13:08:09;;;;;;;;;;;;;;;;;;5028448;28;1566;-68
2022/03/17 13:16:00;;;;;;;;;;;;;;;;;;5015889;28;963;-65
2022/03/17 13:18:29;;;;;;;;;;;;;;;;;;5023532;28;1653;-66
2022/03/17 13:21:02;;;;;;;;;;;;;;;;;;5014605;28;1946;-67
2022/03/17 13:23:34;;;;;;;;;;;;;;;;;;5012797;28;1690;-67
2022/03/17 13:26:00;;;;;;;;;;;;;;;;;;5013194;28;1400;-67
2022/03/17 13:28:27;;;;;;;;;;;;;;;;;;5013377;28;1085;-70
2022/03/17 13:30:53;;;;;;;;;;;;;;;;;;5014279;28;1765;-69
2022/03/17 13:33:25;;;;;;;;;;;;;;;;;;5020935;28;1289;-69
2022/03/17 13:35:51;;;;;;;;;;;;;;;;;;5014989;28;1198;-67
2022/03/17 13:38:19;;;;;;;;;;;;;;;;;;5013427;28;1039;-67
2022/03/17 13:40:46;;;;;;;;;;;;;;;;;;5012804;28;1922;-69
2022/03/17 13:43:14;;;;;;;;;;;;;;;;;;5012859;28;1801;-69
2022/03/17 13:45:41;;;;;;;;;;;;;;;;;;5013084;28;1932;-69
2022/03/17 13:48:07;;;;;;;;;;;;;;;;;;5012893;28;1087;-69
2022/03/17 13:50:34;;;;;;;;;;;;;;;;;;5012662;28;1492;-69
2022/03/17 13:53:01;;;;;;;;;;;;;;;;;;4992001;28;1324;-69
2022/03/17 13:55:33;;;;;;;;;;;;;;;;;;4993143;28;1088;-69
2022/03/17 13:58:08;;;;;;;;;;;;;;;;;;5012972;28;1564;-68
2022/03/17 14:00:34;;;;;;;;;;;;;;;;;;5013274;28;1650;-69
2022/03/17 14:03:10;;;;;;;;;;;;;;;;;;5011673;28;1918;-69
2022/03/17 14:05:37;;;;;;;;;;;;;;;;;;5011836;28;1655;-69
2022/03/17 14:08:03;;;;;;;;;;;;;;;;;;5012320;28;1681;-69
2022/03/17 14:10:29;;;;;;;;;;;;;;;;;;5011375;28;1366;-70
2022/03/17 14:13:04;;;;;;;;;;;;;;;;;;5012158;28;1662;-69
2022/03/17 14:15:30;;;;;;;;;;;;;;;;;;5012519;28;1599;-69
2022/03/17 14:17:56;;;;;;;;;;;;;;;;;;5011879;28;1638;-69
2022/03/17 14:20:22;;;;;;;;;;;;;;;;;;5012354;28;1576;-69
2022/03/17 14:25:33;;;;;;;;;;;;;;;;;;5012259;28;1552;-69
2022/03/17 14:27:59;;;;;;;;;;;;;;;;;;5012022;28;1110;-68
2022/03/17 14:30:27;;;;;;;;;;;;;;;;;;5012143;28;1568;-68
2022/03/17 14:32:53;;;;;;;;;;;;;;;;;;5011779;28;1556;-68
2022/03/17 14:35:19;;;;;;;;;;;;;;;;;;5012001;28;1631;-69
2022/03/17 14:37:45;;;;;;;;;;;;;;;;;;5011752;28;1595;-67
2022/03/17 14:40:12;;;;;;;;;;;;;;;;;;5012182;28;1332;-68
2022/03/17 14:42:38;;;;;;;;;;;;;;;;;;4999721;28;1919;-68
2022/03/17 14:45:05;;;;;;;;;;;;;;;;;;5012436;28;1083;-68
2022/03/17 14:47:34;;;;;;;;;;;;;;;;;;5010577;28;1595;-69
2022/03/17 14:50:01;;;;;;;;;;;;;;;;;;5011709;28;1491;-69
2022/03/17 14:52:27;;;;;;;;;;;;;;;;;;5011724;28;1584;-68
2022/03/17 14:54:53;;;;;;;;;;;;;;;;;;4997501;28;1108;-68
2022/03/17 14:57:20;;;;;;;;;;;;;;;;;;5010669;28;1664;-68
2022/03/17 14:59:47;;;;;;;;;;;;;;;;;;5011155;28;1539;-68
2022/03/17 15:02:13;;;;;;;;;;;;;;;;;;5011690;28;1986;-68
2022/03/17 15:04:40;;;;;;;;;;;;;;;;;;5011571;28;1548;-68
2022/03/17 15:07:07;;;;;;;;;;;;;;;;;;5011405;28;1483;-68
2022/03/17 15:09:33;;;;;;;;;;;;;;;;;;5011790;28;1467;-68
2022/03/17 15:11:59;;;;;;;;;;;;;;;;;;5011371;28;1388;-69
2022/03/17 15:14:25;;;;;;;;;;;;;;;;;;5011497;28;1138;-69
2022/03/17 15:16:51;;;;;;;;;;;;;;;;;;5011223;28;889;-68
2022/03/17 15:19:17;;;;;;;;;;;;;;;;;;5011345;28;1110;-68
2022/03/17 15:21:45;;;;;;;;;;;;;;;;;;5010790;28;1911;-70
2022/03/17 15:24:11;;;;;;;;;;;;;;;;;;5010870;28;1468;-69
2022/03/17 15:26:37;;;;;;;;;;;;;;;;;;5010770;28;1591;-68
2022/03/17 15:31:47;;;;;;;;;;;;;;;;;;4993400;28;1619;-65
2022/03/17 15:34:14;;;;;;;;;;;;;;;;;;5006535;28;1322;-68
2022/03/17 15:36:40;;;;;;;;;;;;;;;;;;4995444;28;1666;-67
2022/03/17 15:39:09;;;;;;;;;;;;;;;;;;5011067;28;1551;-68
2022/03/17 15:41:35;;;;;;;;;;;;;;;;;;5010351;28;1922;-68
2022/03/17 15:44:02;;;;;;;;;;;;;;;;;;5010735;28;1543;-68
2022/03/17 15:46:28;;;;;;;;;;;;;;;;;;5015044;28;2019;-68
2022/03/17 15:48:54;;;;;;;;;;;;;;;;;;5005681;28;1607;-68
2022/03/17 15:51:21;;;;;;;;;;;;;;;;;;5016943;28;1697;-67
2022/03/17 15:53:47;;;;;;;;;;;;;;;;;;5011587;28;899;-68
2022/03/17 15:56:15;;;;;;;;;;;;;;;;;;5009320;28;1795;-68
2022/03/17 15:58:41;;;;;;;;;;;;;;;;;;5010555;28;1679;-68
2022/03/17 16:01:08;;;;;;;;;;;;;;;;;;5004729;28;1603;-68
2022/03/17 16:03:35;;;;;;;;;;;;;;;;;;5010263;28;1984;-68
2022/03/17 16:06:02;;;;;;;;;;;;;;;;;;5010159;28;1686;-68
2022/03/17 16:08:29;;;;;;;;;;;;;;;;;;5010178;28;1642;-68
2022/03/17 16:16:24;;;;;;;;;;;;;;;;;;5008556;28;1564;-68
2022/03/17 16:18:51;;;;;;;;;;;;;;;;;;5009679;28;1658;-69
2022/03/17 16:21:21;;;;;;;;;;;;;;;;;;5010284;28;1433;-67
2022/03/17 16:23:47;;;;;;;;;;;;;;;;;;5010115;28;1918;-68
2022/03/17 16:26:13;;;;;;;;;;;;;;;;;;5012244;28;1568;-67
2022/03/17 16:28:42;;;;;;;;;;;;;;;;;;5014483;28;1378;-68
2022/03/17 16:31:09;;;;;;;;;;;;;;;;;;5014407;28;1646;-67
2022/03/17 16:33:35;;;;;;;;;;;;;;;;;;5014182;28;1607;-67
2022/03/17 16:36:01;;;;;;;;;;;;;;;;;;5013860;28;1599;-68
2022/03/17 16:38:27;;;;;;;;;;;;;;;;;;5006241;28;1365;-68
2022/03/17 16:40:54;;;;;;;;;;;;;;;;;;5013941;28;1572;-68
2022/03/17 16:43:21;;;;;;;;;;;;;;;;;;5013542;28;1911;-68
2022/03/17 16:45:48;;;;;;;;;;;;;;;;;;5008452;28;1456;-68
2022/03/17 16:48:14;;;;;;;;;;;;;;;;;;5013365;28;1623;-67
2022/03/17 16:50:41;;;;;;;;;;;;;;;;;;5012667;28;1603;-67
2022/03/17 16:53:07;;;;;;;;;;;;;;;;;;5010011;28;1580;-68
2022/03/17 16:55:33;;;;;;;;;;;;;;;;;;5012616;28;1376;-67
2022/03/17 16:58:00;;;;;;;;;;;;;;;;;;5011283;28;1563;-67
2022/03/17 17:00:27;;;;;;;;;;;;;;;;;;4992696;28;1494;-68
2022/03/17 17:02:54;;;;;;;;;;;;;;;;;;5007994;28;1977;-68
2022/03/17 17:05:22;;;;;;;;;;;;;;;;;;5011494;28;2129;-68
2022/03/17 17:07:48;;;;;;;;;;;;;;;;;;5011686;28;1682;-68
2022/03/17 17:10:16;;;;;;;;;;;;;;;;;;5011264;28;1550;-67
2022/03/17 17:12:43;;;;;;;;;;;;;;;;;;5011521;28;1423;-68
2022/03/17 17:15:09;;;;;;;;;;;;;;;;;;5011529;28;1567;-67
2022/03/17 17:17:36;;;;;;;;;;;;;;;;;;5011817;28;1629;-67
2022/03/17 17:20:04;;;;;;;;;;;;;;;;;;5013454;28;1317;-68
2022/03/17 17:22:30;;;;;;;;;;;;;;;;;;5013681;28;1985;-68
2022/03/17 17:30:42;;;;;;;;;;;;;;;;;;5013486;28;1325;-68
2022/03/17 17:33:10;;;;;;;;;;;;;;;;;;5013629;28;782;-67
2022/03/17 17:35:41;;;;;;;;;;;;;;;;;;5028537;28;1364;-68
2022/03/17 17:38:07;;;;;;;;;;;;;;;;;;5013229;28;787;-67
2022/03/17 17:40:34;;;;;;;;;;;;;;;;;;5013363;28;1301;-68
2022/03/17 17:43:05;;;;;;;;;;;;;;;;;;5013548;28;1975;-68
2022/03/17 17:45:32;;;;;;;;;;;;;;;;;;5012770;28;1622;-67